sensor_id;sensor_type;location;lat;lon;timestamp;P1;durP1;ratioP1;P2;durP2;ratioP2
6561;SDS011;3314;50.890;4.722;2024-03-17T00:01:18;10.2;;;3.5;;
6561;SDS011;3314;50.890;4.722;2024-03-17T00:03:18;12.4;;;4.4;;
6561;SDS011;3314;50.890;4.722;2024-03-17T00:05:19;12.5;;;3.4;;
6561;SDS011;3314;50.890;4.722;2024-03-17T00:07:19;11.3;;;3.3;;
6561;SDS011;3314;50.890;4.722;2024-03-17T00:11:10;11.2;;;3.6;;
6561;SDS011;3314;50.890;4.722;2024-03-17T00:13:14;12.0;;;3.3;;
6561;SDS011;3314;50.890;4.722;2024-03-17T00:15:17;9.3;;;3.0;;
6561;SDS011;3314;50.890;4.722;2024-03-17T00:17:18;12.6;;;3.3;;
6561;SDS011;3314;50.890;4.722;2024-03-17T00:19:07;12.9;;;4.0;;
6561;SDS011;3314;50.890;4.722;2024-03-17T00:21:07;12.1;;;3.9;;
6561;SDS011;3314;50.890;4.722;2024-03-17T00:23:08;13.3;;;3.8;;
6561;SDS011;3314;50.890;4.722;2024-03-17T00:25:08;13.1;;;4.3;;
6561;SDS011;3314;50.890;4.722;2024-03-17T00:27:14;12.8;;;4.3;;
6561;SDS011;3314;50.890;4.722;2024-03-17T00:29:15;16.2;;;4.8;;
6561;SDS011;3314;50.890;4.722;2024-03-17T00:31:15;14.8;;;5.5;;
6561;SDS011;3314;50.890;4.722;2024-03-17T00:33:15;12.6;;;5.0;;
6561;SDS011;3314;50.890;4.722;2024-03-17T00:35:06;16.2;;;5.4;;
6561;SDS011;3314;50.890;4.722;2024-03-17T00:37:07;20.2;;;5.9;;
6561;SDS011;3314;50.890;4.722;2024-03-17T00:39:06;14.4;;;5.1;;
6561;SDS011;3314;50.890;4.722;2024-03-17T00:41:07;17.5;;;5.6;;
6561;SDS011;3314;50.890;4.722;2024-03-17T00:43:06;15.9;;;5.8;;
6561;SDS011;3314;50.890;4.722;2024-03-17T00:47:08;15.5;;;5.3;;
6561;SDS011;3314;50.890;4.722;2024-03-17T00:49:09;15.2;;;5.9;;
6561;SDS011;3314;50.890;4.722;2024-03-17T00:51:09;13.8;;;5.1;;
6561;SDS011;3314;50.890;4.722;2024-03-17T00:53:09;15.5;;;5.3;;
6561;SDS011;3314;50.890;4.722;2024-03-17T00:55:12;16.7;;;6.3;;
6561;SDS011;3314;50.890;4.722;2024-03-17T00:57:08;16.6;;;5.5;;
6561;SDS011;3314;50.890;4.722;2024-03-17T00:59:08;16.3;;;6.0;;
6561;SDS011;3314;50.890;4.722;2024-03-17T01:01:08;13.9;;;5.2;;
6561;SDS011;3314;50.890;4.722;2024-03-17T01:03:08;13.3;;;4.6;;
6561;SDS011;3314;50.890;4.722;2024-03-17T01:05:11;15.8;;;5.7;;
6561;SDS011;3314;50.890;4.722;2024-03-17T01:07:04;15.3;;;5.5;;
6561;SDS011;3314;50.890;4.722;2024-03-17T01:09:10;13.6;;;5.3;;
6561;SDS011;3314;50.890;4.722;2024-03-17T01:10:59;11.3;;;4.7;;
6561;SDS011;3314;50.890;4.722;2024-03-17T01:12:59;12.7;;;5.0;;
6561;SDS011;3314;50.890;4.722;2024-03-17T01:14:59;12.7;;;4.5;;
6561;SDS011;3314;50.890;4.722;2024-03-17T01:17:00;11.8;;;4.2;;
6561;SDS011;3314;50.890;4.722;2024-03-17T01:19:00;15.2;;;4.5;;
6561;SDS011;3314;50.890;4.722;2024-03-17T01:21:00;12.8;;;4.3;;
6561;SDS011;3314;50.890;4.722;2024-03-17T01:23:00;12.2;;;3.8;;
6561;SDS011;3314;50.890;4.722;2024-03-17T01:25:00;13.7;;;4.0;;
6561;SDS011;3314;50.890;4.722;2024-03-17T01:27:00;10.2;;;3.8;;
6561;SDS011;3314;50.890;4.722;2024-03-17T01:29:00;12.0;;;3.9;;
6561;SDS011;3314;50.890;4.722;2024-03-17T01:31:00;13.5;;;4.4;;
6561;SDS011;3314;50.890;4.722;2024-03-17T01:33:00;12.0;;;4.2;;
6561;SDS011;3314;50.890;4.722;2024-03-17T01:34:59;11.6;;;3.6;;
6561;SDS011;3314;50.890;4.722;2024-03-17T01:36:59;10.2;;;3.9;;
6561;SDS011;3314;50.890;4.722;2024-03-17T01:38:59;11.0;;;3.8;;
6561;SDS011;3314;50.890;4.722;2024-03-17T01:40:59;15.5;;;4.0;;
6561;SDS011;3314;50.890;4.722;2024-03-17T01:42:58;12.3;;;4.3;;
6561;SDS011;3314;50.890;4.722;2024-03-17T01:44:59;14.7;;;4.5;;
6561;SDS011;3314;50.890;4.722;2024-03-17T01:46:59;12.5;;;4.7;;
6561;SDS011;3314;50.890;4.722;2024-03-17T01:48:58;12.6;;;4.0;;
6561;SDS011;3314;50.890;4.722;2024-03-17T01:50:58;11.1;;;3.5;;
6561;SDS011;3314;50.890;4.722;2024-03-17T01:53:01;13.5;;;4.3;;
6561;SDS011;3314;50.890;4.722;2024-03-17T01:54:50;13.9;;;4.4;;
6561;SDS011;3314;50.890;4.722;2024-03-17T01:56:49;11.3;;;4.6;;
6561;SDS011;3314;50.890;4.722;2024-03-17T01:58:49;11.6;;;3.8;;
6561;SDS011;3314;50.890;4.722;2024-03-17T02:00:49;11.4;;;3.8;;
6561;SDS011;3314;50.890;4.722;2024-03-17T02:02:49;13.6;;;4.0;;
6561;SDS011;3314;50.890;4.722;2024-03-17T02:04:49;12.2;;;3.6;;
6561;SDS011;3314;50.890;4.722;2024-03-17T02:06:50;10.7;;;4.3;;
6561;SDS011;3314;50.890;4.722;2024-03-17T02:08:50;12.9;;;4.4;;
6561;SDS011;3314;50.890;4.722;2024-03-17T02:10:53;12.2;;;4.1;;
6561;SDS011;3314;50.890;4.722;2024-03-17T02:12:53;10.2;;;3.6;;
6561;SDS011;3314;50.890;4.722;2024-03-17T02:14:53;12.0;;;3.6;;
6561;SDS011;3314;50.890;4.722;2024-03-17T02:16:52;13.6;;;3.9;;
6561;SDS011;3314;50.890;4.722;2024-03-17T02:18:54;12.8;;;4.2;;
6561;SDS011;3314;50.890;4.722;2024-03-17T02:22:47;12.5;;;4.3;;
6561;SDS011;3314;50.890;4.722;2024-03-17T02:24:47;15.4;;;4.7;;
6561;SDS011;3314;50.890;4.722;2024-03-17T02:26:47;11.1;;;3.9;;
6561;SDS011;3314;50.890;4.722;2024-03-17T02:28:47;12.5;;;4.4;;
6561;SDS011;3314;50.890;4.722;2024-03-17T02:30:47;12.3;;;4.1;;
6561;SDS011;3314;50.890;4.722;2024-03-17T02:32:51;12.9;;;4.3;;
6561;SDS011;3314;50.890;4.722;2024-03-17T02:34:52;12.3;;;4.7;;
6561;SDS011;3314;50.890;4.722;2024-03-17T02:36:52;10.9;;;4.1;;
6561;SDS011;3314;50.890;4.722;2024-03-17T02:39:45;11.2;;;4.4;;
6561;SDS011;3314;50.890;4.722;2024-03-17T02:40:45;14.8;;;4.6;;
6561;SDS011;3314;50.890;4.722;2024-03-17T02:42:46;12.1;;;4.1;;
6561;SDS011;3314;50.890;4.722;2024-03-17T02:44:46;13.5;;;4.7;;
6561;SDS011;3314;50.890;4.722;2024-03-17T02:46:47;13.4;;;4.7;;
6561;SDS011;3314;50.890;4.722;2024-03-17T02:48:49;11.8;;;4.1;;
6561;SDS011;3314;50.890;4.722;2024-03-17T02:50:40;13.4;;;4.4;;
6561;SDS011;3314;50.890;4.722;2024-03-17T02:52:40;12.9;;;4.5;;
6561;SDS011;3314;50.890;4.722;2024-03-17T02:54:40;14.9;;;5.2;;
6561;SDS011;3314;50.890;4.722;2024-03-17T02:56:41;14.9;;;4.9;;
6561;SDS011;3314;50.890;4.722;2024-03-17T02:58:42;13.1;;;4.8;;
6561;SDS011;3314;50.890;4.722;2024-03-17T03:00:43;14.3;;;4.7;;
6561;SDS011;3314;50.890;4.722;2024-03-17T03:02:42;14.5;;;5.4;;
6561;SDS011;3314;50.890;4.722;2024-03-17T03:04:43;15.1;;;5.2;;
6561;SDS011;3314;50.890;4.722;2024-03-17T03:06:42;14.2;;;4.8;;
6561;SDS011;3314;50.890;4.722;2024-03-17T03:08:43;15.2;;;5.5;;
6561;SDS011;3314;50.890;4.722;2024-03-17T03:10:45;17.2;;;6.1;;
6561;SDS011;3314;50.890;4.722;2024-03-17T03:12:35;13.2;;;4.9;;
6561;SDS011;3314;50.890;4.722;2024-03-17T03:14:35;15.5;;;5.2;;
6561;SDS011;3314;50.890;4.722;2024-03-17T03:16:35;17.2;;;5.8;;
6561;SDS011;3314;50.890;4.722;2024-03-17T03:18:34;13.9;;;5.5;;
6561;SDS011;3314;50.890;4.722;2024-03-17T03:20:34;12.9;;;5.0;;
6561;SDS011;3314;50.890;4.722;2024-03-17T03:22:34;12.2;;;4.6;;
6561;SDS011;3314;50.890;4.722;2024-03-17T03:24:34;13.3;;;4.7;;
6561;SDS011;3314;50.890;4.722;2024-03-17T03:26:34;12.7;;;4.7;;
6561;SDS011;3314;50.890;4.722;2024-03-17T03:28:35;15.0;;;5.1;;
6561;SDS011;3314;50.890;4.722;2024-03-17T03:30:35;12.8;;;4.9;;
6561;SDS011;3314;50.890;4.722;2024-03-17T03:32:35;12.3;;;4.4;;
6561;SDS011;3314;50.890;4.722;2024-03-17T03:34:35;14.1;;;4.8;;
6561;SDS011;3314;50.890;4.722;2024-03-17T03:36:35;13.5;;;4.9;;
6561;SDS011;3314;50.890;4.722;2024-03-17T03:38:35;12.1;;;4.8;;
6561;SDS011;3314;50.890;4.722;2024-03-17T03:40:34;13.7;;;5.0;;
6561;SDS011;3314;50.890;4.722;2024-03-17T03:42:34;13.1;;;4.7;;
6561;SDS011;3314;50.890;4.722;2024-03-17T03:44:34;15.2;;;4.4;;
6561;SDS011;3314;50.890;4.722;2024-03-17T03:48:35;11.7;;;4.4;;
6561;SDS011;3314;50.890;4.722;2024-03-17T03:50:35;12.8;;;4.9;;
6561;SDS011;3314;50.890;4.722;2024-03-17T03:52:35;14.5;;;4.9;;
6561;SDS011;3314;50.890;4.722;2024-03-17T03:54:36;12.2;;;4.9;;
6561;SDS011;3314;50.890;4.722;2024-03-17T03:56:44;17.7;;;5.1;;
6561;SDS011;3314;50.890;4.722;2024-03-17T03:58:32;14.8;;;4.7;;
6561;SDS011;3314;50.890;4.722;2024-03-17T04:00:33;11.2;;;4.6;;
6561;SDS011;3314;50.890;4.722;2024-03-17T04:02:34;14.9;;;4.9;;
6561;SDS011;3314;50.890;4.722;2024-03-17T04:04:34;14.8;;;5.3;;
6561;SDS011;3314;50.890;4.722;2024-03-17T04:06:34;15.0;;;5.3;;
6561;SDS011;3314;50.890;4.722;2024-03-17T04:08:34;16.9;;;5.7;;
6561;SDS011;3314;50.890;4.722;2024-03-17T04:10:34;13.5;;;5.1;;
6561;SDS011;3314;50.890;4.722;2024-03-17T04:12:24;12.5;;;4.8;;
6561;SDS011;3314;50.890;4.722;2024-03-17T04:14:24;14.4;;;4.6;;
6561;SDS011;3314;50.890;4.722;2024-03-17T04:16:24;16.7;;;5.3;;
6561;SDS011;3314;50.890;4.722;2024-03-17T04:18:25;16.5;;;5.2;;
6561;SDS011;3314;50.890;4.722;2024-03-17T04:20:26;14.4;;;4.8;;
6561;SDS011;3314;50.890;4.722;2024-03-17T04:22:25;12.8;;;5.5;;
6561;SDS011;3314;50.890;4.722;2024-03-17T04:24:25;14.0;;;5.2;;
6561;SDS011;3314;50.890;4.722;2024-03-17T04:26:25;15.4;;;5.2;;
6561;SDS011;3314;50.890;4.722;2024-03-17T04:28:25;15.3;;;5.5;;
6561;SDS011;3314;50.890;4.722;2024-03-17T04:30:25;14.3;;;5.1;;
6561;SDS011;3314;50.890;4.722;2024-03-17T04:32:24;13.1;;;6.1;;
6561;SDS011;3314;50.890;4.722;2024-03-17T04:34:24;12.9;;;4.8;;
6561;SDS011;3314;50.890;4.722;2024-03-17T04:36:24;13.7;;;4.8;;
6561;SDS011;3314;50.890;4.722;2024-03-17T04:38:28;12.9;;;4.4;;
6561;SDS011;3314;50.890;4.722;2024-03-17T04:40:19;11.9;;;4.4;;
6561;SDS011;3314;50.890;4.722;2024-03-17T04:42:19;14.1;;;4.7;;
6561;SDS011;3314;50.890;4.722;2024-03-17T04:44:20;14.1;;;5.2;;
6561;SDS011;3314;50.890;4.722;2024-03-17T04:46:20;14.6;;;5.0;;
6561;SDS011;3314;50.890;4.722;2024-03-17T04:48:20;12.7;;;4.6;;
6561;SDS011;3314;50.890;4.722;2024-03-17T04:50:22;14.8;;;5.0;;
6561;SDS011;3314;50.890;4.722;2024-03-17T04:52:22;13.8;;;4.9;;
6561;SDS011;3314;50.890;4.722;2024-03-17T04:54:21;12.6;;;4.8;;
6561;SDS011;3314;50.890;4.722;2024-03-17T04:56:21;14.1;;;4.7;;
6561;SDS011;3314;50.890;4.722;2024-03-17T04:58:21;12.8;;;4.3;;
6561;SDS011;3314;50.890;4.722;2024-03-17T05:00:22;13.7;;;5.1;;
6561;SDS011;3314;50.890;4.722;2024-03-17T05:02:24;11.6;;;4.4;;
6561;SDS011;3314;50.890;4.722;2024-03-17T05:04:14;12.1;;;4.7;;
6561;SDS011;3314;50.890;4.722;2024-03-17T05:06:15;12.7;;;4.8;;
6561;SDS011;3314;50.890;4.722;2024-03-17T05:08:15;11.5;;;4.5;;
6561;SDS011;3314;50.890;4.722;2024-03-17T05:10:15;12.6;;;4.9;;
6561;SDS011;3314;50.890;4.722;2024-03-17T05:12:15;15.7;;;5.3;;
6561;SDS011;3314;50.890;4.722;2024-03-17T05:14:14;15.9;;;4.8;;
6561;SDS011;3314;50.890;4.722;2024-03-17T05:16:14;11.8;;;4.5;;
6561;SDS011;3314;50.890;4.722;2024-03-17T05:18:14;11.4;;;4.2;;
6561;SDS011;3314;50.890;4.722;2024-03-17T05:20:14;11.7;;;4.4;;
6561;SDS011;3314;50.890;4.722;2024-03-17T05:22:14;12.7;;;4.4;;
6561;SDS011;3314;50.890;4.722;2024-03-17T05:24:14;13.4;;;4.9;;
6561;SDS011;3314;50.890;4.722;2024-03-17T05:26:14;11.5;;;5.0;;
6561;SDS011;3314;50.890;4.722;2024-03-17T05:28:13;17.5;;;5.1;;
6561;SDS011;3314;50.890;4.722;2024-03-17T05:30:13;14.7;;;4.4;;
6561;SDS011;3314;50.890;4.722;2024-03-17T05:32:15;18.5;;;5.1;;
6561;SDS011;3314;50.890;4.722;2024-03-17T05:34:14;14.6;;;4.7;;
6561;SDS011;3314;50.890;4.722;2024-03-17T05:36:15;17.8;;;5.4;;
6561;SDS011;3314;50.890;4.722;2024-03-17T05:38:14;12.8;;;5.2;;
6561;SDS011;3314;50.890;4.722;2024-03-17T05:40:14;12.4;;;4.9;;
6561;SDS011;3314;50.890;4.722;2024-03-17T05:42:14;15.5;;;4.9;;
6561;SDS011;3314;50.890;4.722;2024-03-17T05:44:16;14.0;;;5.0;;
6561;SDS011;3314;50.890;4.722;2024-03-17T05:46:07;17.5;;;5.1;;
6561;SDS011;3314;50.890;4.722;2024-03-17T05:48:10;15.6;;;5.3;;
6561;SDS011;3314;50.890;4.722;2024-03-17T05:50:10;14.9;;;5.2;;
6561;SDS011;3314;50.890;4.722;2024-03-17T05:52:10;16.4;;;5.6;;
6561;SDS011;3314;50.890;4.722;2024-03-17T05:54:10;13.3;;;5.0;;
6561;SDS011;3314;50.890;4.722;2024-03-17T05:56:12;13.3;;;4.9;;
6561;SDS011;3314;50.890;4.722;2024-03-17T05:58:13;14.4;;;5.4;;
6561;SDS011;3314;50.890;4.722;2024-03-17T06:00:03;15.8;;;4.9;;
6561;SDS011;3314;50.890;4.722;2024-03-17T06:02:02;13.5;;;4.8;;
6561;SDS011;3314;50.890;4.722;2024-03-17T06:04:04;13.7;;;4.7;;
6561;SDS011;3314;50.890;4.722;2024-03-17T06:06:05;11.6;;;5.1;;
6561;SDS011;3314;50.890;4.722;2024-03-17T06:08:05;14.5;;;4.7;;
6561;SDS011;3314;50.890;4.722;2024-03-17T06:10:05;14.1;;;5.1;;
6561;SDS011;3314;50.890;4.722;2024-03-17T06:12:06;14.2;;;5.0;;
6561;SDS011;3314;50.890;4.722;2024-03-17T06:14:09;13.2;;;4.6;;
6561;SDS011;3314;50.890;4.722;2024-03-17T06:16:09;13.9;;;5.5;;
6561;SDS011;3314;50.890;4.722;2024-03-17T06:18:02;14.8;;;5.7;;
6561;SDS011;3314;50.890;4.722;2024-03-17T06:20:04;13.6;;;5.6;;
6561;SDS011;3314;50.890;4.722;2024-03-17T06:22:06;12.8;;;5.0;;
6561;SDS011;3314;50.890;4.722;2024-03-17T06:24:08;13.7;;;5.4;;
6561;SDS011;3314;50.890;4.722;2024-03-17T06:25:57;14.1;;;5.9;;
6561;SDS011;3314;50.890;4.722;2024-03-17T06:28:00;13.0;;;5.2;;
6561;SDS011;3314;50.890;4.722;2024-03-17T06:30:12;14.8;;;5.1;;
6561;SDS011;3314;50.890;4.722;2024-03-17T06:32:00;14.8;;;5.7;;
6561;SDS011;3314;50.890;4.722;2024-03-17T06:34:00;16.4;;;5.2;;
6561;SDS011;3314;50.890;4.722;2024-03-17T06:36:03;14.9;;;5.1;;
6561;SDS011;3314;50.890;4.722;2024-03-17T06:38:03;14.6;;;5.6;;
6561;SDS011;3314;50.890;4.722;2024-03-17T06:40:03;13.7;;;5.0;;
6561;SDS011;3314;50.890;4.722;2024-03-17T06:42:03;13.1;;;4.6;;
6561;SDS011;3314;50.890;4.722;2024-03-17T06:44:07;15.4;;;5.5;;
6561;SDS011;3314;50.890;4.722;2024-03-17T06:45:55;15.0;;;4.7;;
6561;SDS011;3314;50.890;4.722;2024-03-17T06:47:55;15.0;;;4.8;;
6561;SDS011;3314;50.890;4.722;2024-03-17T06:49:55;15.2;;;5.5;;
6561;SDS011;3314;50.890;4.722;2024-03-17T06:51:55;14.9;;;5.2;;
6561;SDS011;3314;50.890;4.722;2024-03-17T06:53:55;13.5;;;5.0;;
6561;SDS011;3314;50.890;4.722;2024-03-17T06:55:55;12.9;;;4.9;;
6561;SDS011;3314;50.890;4.722;2024-03-17T06:57:55;17.3;;;4.6;;
6561;SDS011;3314;50.890;4.722;2024-03-17T06:59:54;13.6;;;5.8;;
6561;SDS011;3314;50.890;4.722;2024-03-17T07:01:54;12.7;;;4.8;;
6561;SDS011;3314;50.890;4.722;2024-03-17T07:03:54;13.6;;;4.9;;
6561;SDS011;3314;50.890;4.722;2024-03-17T07:05:58;14.5;;;5.4;;
6561;SDS011;3314;50.890;4.722;2024-03-17T07:07:59;14.0;;;4.9;;
6561;SDS011;3314;50.890;4.722;2024-03-17T07:09:49;13.7;;;4.8;;
6561;SDS011;3314;50.890;4.722;2024-03-17T07:11:49;14.8;;;5.5;;
6561;SDS011;3314;50.890;4.722;2024-03-17T07:13:51;14.8;;;5.0;;
6561;SDS011;3314;50.890;4.722;2024-03-17T07:15:50;18.3;;;5.6;;
6561;SDS011;3314;50.890;4.722;2024-03-17T07:17:50;16.0;;;5.0;;
6561;SDS011;3314;50.890;4.722;2024-03-17T07:19:50;13.3;;;5.1;;
6561;SDS011;3314;50.890;4.722;2024-03-17T07:21:50;13.5;;;4.7;;
6561;SDS011;3314;50.890;4.722;2024-03-17T07:23:50;12.9;;;5.3;;
6561;SDS011;3314;50.890;4.722;2024-03-17T07:25:53;14.3;;;4.8;;
6561;SDS011;3314;50.890;4.722;2024-03-17T07:27:53;15.1;;;4.6;;
6561;SDS011;3314;50.890;4.722;2024-03-17T07:29:53;13.2;;;5.0;;
6561;SDS011;3314;50.890;4.722;2024-03-17T07:31:52;15.6;;;5.4;;
6561;SDS011;3314;50.890;4.722;2024-03-17T07:33:52;13.5;;;4.7;;
6561;SDS011;3314;50.890;4.722;2024-03-17T07:35:53;11.4;;;4.7;;
6561;SDS011;3314;50.890;4.722;2024-03-17T07:37:43;12.5;;;5.1;;
6561;SDS011;3314;50.890;4.722;2024-03-17T07:39:43;14.7;;;4.5;;
6561;SDS011;3314;50.890;4.722;2024-03-17T07:41:43;11.1;;;4.7;;
6561;SDS011;3314;50.890;4.722;2024-03-17T07:43:43;18.9;;;4.8;;
6561;SDS011;3314;50.890;4.722;2024-03-17T07:45:58;14.6;;;5.0;;
6561;SDS011;3314;50.890;4.722;2024-03-17T07:47:46;11.1;;;4.4;;
6561;SDS011;3314;50.890;4.722;2024-03-17T07:49:46;14.0;;;4.2;;
6561;SDS011;3314;50.890;4.722;2024-03-17T07:51:46;12.7;;;4.4;;
6561;SDS011;3314;50.890;4.722;2024-03-17T07:53:48;14.1;;;4.2;;
6561;SDS011;3314;50.890;4.722;2024-03-17T07:55:56;16.6;;;5.1;;
6561;SDS011;3314;50.890;4.722;2024-03-17T07:57:46;10.6;;;4.4;;
6561;SDS011;3314;50.890;4.722;2024-03-17T07:59:50;13.3;;;5.3;;
6561;SDS011;3314;50.890;4.722;2024-03-17T08:01:39;13.2;;;4.4;;
6561;SDS011;3314;50.890;4.722;2024-03-17T08:03:40;12.6;;;4.5;;
6561;SDS011;3314;50.890;4.722;2024-03-17T08:05:40;11.7;;;3.8;;
6561;SDS011;3314;50.890;4.722;2024-03-17T08:07:40;11.5;;;4.8;;
6561;SDS011;3314;50.890;4.722;2024-03-17T08:09:42;13.9;;;4.7;;
6561;SDS011;3314;50.890;4.722;2024-03-17T08:11:47;12.0;;;3.9;;
6561;SDS011;3314;50.890;4.722;2024-03-17T08:13:46;13.7;;;4.4;;
6561;SDS011;3314;50.890;4.722;2024-03-17T08:15:47;13.5;;;4.4;;
6561;SDS011;3314;50.890;4.722;2024-03-17T08:17:48;11.3;;;4.0;;
6561;SDS011;3314;50.890;4.722;2024-03-17T08:21:37;11.6;;;4.2;;
6561;SDS011;3314;50.890;4.722;2024-03-17T08:23:42;13.6;;;4.2;;
6561;SDS011;3314;50.890;4.722;2024-03-17T08:25:41;15.4;;;4.6;;
6561;SDS011;3314;50.890;4.722;2024-03-17T08:27:41;10.9;;;4.1;;
6561;SDS011;3314;50.890;4.722;2024-03-17T08:29:41;12.2;;;4.4;;
6561;SDS011;3314;50.890;4.722;2024-03-17T08:31:42;11.8;;;4.3;;
6561;SDS011;3314;50.890;4.722;2024-03-17T08:33:42;12.7;;;3.6;;
6561;SDS011;3314;50.890;4.722;2024-03-17T08:35:42;11.3;;;3.8;;
6561;SDS011;3314;50.890;4.722;2024-03-17T08:37:42;11.9;;;3.6;;
6561;SDS011;3314;50.890;4.722;2024-03-17T08:39:41;13.7;;;3.5;;
6561;SDS011;3314;50.890;4.722;2024-03-17T08:41:41;9.1;;;3.2;;
6561;SDS011;3314;50.890;4.722;2024-03-17T08:43:43;10.4;;;3.2;;
6561;SDS011;3314;50.890;4.722;2024-03-17T08:45:31;12.2;;;3.9;;
6561;SDS011;3314;50.890;4.722;2024-03-17T08:47:31;11.3;;;3.7;;
6561;SDS011;3314;50.890;4.722;2024-03-17T08:49:31;13.2;;;3.6;;
6561;SDS011;3314;50.890;4.722;2024-03-17T08:51:32;13.3;;;3.1;;
6561;SDS011;3314;50.890;4.722;2024-03-17T08:53:31;13.0;;;3.1;;
6561;SDS011;3314;50.890;4.722;2024-03-17T08:55:31;11.3;;;3.4;;
6561;SDS011;3314;50.890;4.722;2024-03-17T08:57:33;10.4;;;3.0;;
6561;SDS011;3314;50.890;4.722;2024-03-17T08:59:33;9.9;;;2.7;;
6561;SDS011;3314;50.890;4.722;2024-03-17T09:01:33;10.4;;;2.8;;
6561;SDS011;3314;50.890;4.722;2024-03-17T09:03:33;9.8;;;3.1;;
6561;SDS011;3314;50.890;4.722;2024-03-17T09:05:34;11.7;;;2.6;;
6561;SDS011;3314;50.890;4.722;2024-03-17T09:07:33;11.5;;;3.1;;
6561;SDS011;3314;50.890;4.722;2024-03-17T09:09:33;12.0;;;3.1;;
6561;SDS011;3314;50.890;4.722;2024-03-17T09:11:33;11.4;;;3.3;;
6561;SDS011;3314;50.890;4.722;2024-03-17T09:13:39;12.8;;;3.2;;
6561;SDS011;3314;50.890;4.722;2024-03-17T09:17:27;9.6;;;2.5;;
6561;SDS011;3314;50.890;4.722;2024-03-17T09:19:29;9.7;;;2.4;;
6561;SDS011;3314;50.890;4.722;2024-03-17T09:21:29;9.6;;;2.2;;
6561;SDS011;3314;50.890;4.722;2024-03-17T09:23:30;14.0;;;3.0;;
6561;SDS011;3314;50.890;4.722;2024-03-17T09:25:30;12.6;;;2.8;;
6561;SDS011;3314;50.890;4.722;2024-03-17T09:27:30;10.1;;;2.6;;
6561;SDS011;3314;50.890;4.722;2024-03-17T09:29:30;11.0;;;2.8;;
6561;SDS011;3314;50.890;4.722;2024-03-17T09:31:31;8.8;;;2.5;;
6561;SDS011;3314;50.890;4.722;2024-03-17T09:33:30;12.2;;;2.6;;
6561;SDS011;3314;50.890;4.722;2024-03-17T09:35:30;9.4;;;2.7;;
6561;SDS011;3314;50.890;4.722;2024-03-17T09:37:31;12.2;;;2.8;;
6561;SDS011;3314;50.890;4.722;2024-03-17T09:39:31;10.9;;;2.9;;
6561;SDS011;3314;50.890;4.722;2024-03-17T09:41:32;11.7;;;2.7;;
6561;SDS011;3314;50.890;4.722;2024-03-17T09:43:22;8.8;;;2.7;;
6561;SDS011;3314;50.890;4.722;2024-03-17T09:45:22;9.8;;;2.2;;
6561;SDS011;3314;50.890;4.722;2024-03-17T09:47:24;9.2;;;2.2;;
6561;SDS011;3314;50.890;4.722;2024-03-17T09:49:24;14.3;;;2.8;;
6561;SDS011;3314;50.890;4.722;2024-03-17T09:51:24;10.6;;;2.2;;
6561;SDS011;3314;50.890;4.722;2024-03-17T09:53:26;7.6;;;2.1;;
6561;SDS011;3314;50.890;4.722;2024-03-17T09:55:26;9.5;;;2.1;;
6561;SDS011;3314;50.890;4.722;2024-03-17T09:57:26;9.4;;;2.3;;
6561;SDS011;3314;50.890;4.722;2024-03-17T09:59:26;10.0;;;2.1;;
6561;SDS011;3314;50.890;4.722;2024-03-17T10:01:26;8.9;;;2.7;;
6561;SDS011;3314;50.890;4.722;2024-03-17T10:03:42;9.0;;;2.1;;
6561;SDS011;3314;50.890;4.722;2024-03-17T10:05:19;9.7;;;2.1;;
6561;SDS011;3314;50.890;4.722;2024-03-17T10:07:20;9.4;;;2.2;;
6561;SDS011;3314;50.890;4.722;2024-03-17T10:09:26;9.2;;;2.5;;
6561;SDS011;3314;50.890;4.722;2024-03-17T10:11:32;8.8;;;2.1;;
6561;SDS011;3314;50.890;4.722;2024-03-17T10:13:21;8.3;;;2.2;;
6561;SDS011;3314;50.890;4.722;2024-03-17T10:15:22;8.3;;;1.8;;
6561;SDS011;3314;50.890;4.722;2024-03-17T10:17:29;9.8;;;2.4;;
6561;SDS011;3314;50.890;4.722;2024-03-17T10:19:21;9.5;;;2.0;;
6561;SDS011;3314;50.890;4.722;2024-03-17T10:21:25;10.8;;;2.4;;
6561;SDS011;3314;50.890;4.722;2024-03-17T10:23:25;12.9;;;2.3;;
6561;SDS011;3314;50.890;4.722;2024-03-17T10:25:30;8.3;;;1.8;;
6561;SDS011;3314;50.890;4.722;2024-03-17T10:27:18;11.6;;;2.1;;
6561;SDS011;3314;50.890;4.722;2024-03-17T10:29:20;9.3;;;1.9;;
6561;SDS011;3314;50.890;4.722;2024-03-17T10:31:23;10.3;;;2.3;;
6561;SDS011;3314;50.890;4.722;2024-03-17T10:33:26;9.2;;;2.6;;
6561;SDS011;3314;50.890;4.722;2024-03-17T10:35:25;10.7;;;2.3;;
6561;SDS011;3314;50.890;4.722;2024-03-17T10:37:14;7.7;;;1.8;;
6561;SDS011;3314;50.890;4.722;2024-03-17T10:39:22;11.7;;;2.4;;
6561;SDS011;3314;50.890;4.722;2024-03-17T10:41:13;11.1;;;2.2;;
6561;SDS011;3314;50.890;4.722;2024-03-17T10:45:13;9.0;;;2.3;;
6561;SDS011;3314;50.890;4.722;2024-03-17T10:47:16;8.6;;;2.4;;
6561;SDS011;3314;50.890;4.722;2024-03-17T10:49:17;9.8;;;2.3;;
6561;SDS011;3314;50.890;4.722;2024-03-17T10:51:17;9.7;;;1.9;;
6561;SDS011;3314;50.890;4.722;2024-03-17T10:53:19;10.5;;;2.9;;
6561;SDS011;3314;50.890;4.722;2024-03-17T10:55:20;7.8;;;2.0;;
6561;SDS011;3314;50.890;4.722;2024-03-17T10:57:23;9.5;;;2.3;;
6561;SDS011;3314;50.890;4.722;2024-03-17T10:59:12;10.1;;;2.7;;
6561;SDS011;3314;50.890;4.722;2024-03-17T11:01:13;8.7;;;2.4;;
6561;SDS011;3314;50.890;4.722;2024-03-17T11:03:13;9.9;;;2.4;;
6561;SDS011;3314;50.890;4.722;2024-03-17T11:05:14;10.4;;;2.3;;
6561;SDS011;3314;50.890;4.722;2024-03-17T11:07:16;10.3;;;2.1;;
6561;SDS011;3314;50.890;4.722;2024-03-17T11:09:16;8.5;;;2.3;;
6561;SDS011;3314;50.890;4.722;2024-03-17T11:11:27;9.6;;;2.1;;
6561;SDS011;3314;50.890;4.722;2024-03-17T11:13:22;8.9;;;1.8;;
6561;SDS011;3314;50.890;4.722;2024-03-17T11:15:35;12.2;;;2.4;;
6561;SDS011;3314;50.890;4.722;2024-03-17T11:17:18;11.0;;;2.6;;
6561;SDS011;3314;50.890;4.722;2024-03-17T11:19:08;11.8;;;2.0;;
6561;SDS011;3314;50.890;4.722;2024-03-17T11:21:19;11.8;;;2.2;;
6561;SDS011;3314;50.890;4.722;2024-03-17T11:23:09;9.6;;;2.1;;
6561;SDS011;3314;50.890;4.722;2024-03-17T11:27:45;11.6;;;2.1;;
6561;SDS011;3314;50.890;4.722;2024-03-17T11:29:23;9.8;;;1.9;;
6561;SDS011;3314;50.890;4.722;2024-03-17T11:31:45;9.2;;;1.6;;
6561;SDS011;3314;50.890;4.722;2024-03-17T11:33:18;11.7;;;1.6;;
6561;SDS011;3314;50.890;4.722;2024-03-17T11:35:14;7.3;;;1.5;;
6561;SDS011;3314;50.890;4.722;2024-03-17T11:37:40;7.1;;;1.4;;
6561;SDS011;3314;50.890;4.722;2024-03-17T11:39:07;11.6;;;1.8;;
6561;SDS011;3314;50.890;4.722;2024-03-17T11:41:38;8.1;;;2.0;;
6561;SDS011;3314;50.890;4.722;2024-03-17T11:43:05;9.2;;;1.7;;
6561;SDS011;3314;50.890;4.722;2024-03-17T11:45:09;10.6;;;1.8;;
6561;SDS011;3314;50.890;4.722;2024-03-17T11:47:12;8.8;;;1.7;;
6561;SDS011;3314;50.890;4.722;2024-03-17T11:49:16;7.8;;;1.4;;
6561;SDS011;3314;50.890;4.722;2024-03-17T11:51:05;7.3;;;1.2;;
6561;SDS011;3314;50.890;4.722;2024-03-17T11:53:05;8.5;;;1.8;;
6561;SDS011;3314;50.890;4.722;2024-03-17T11:55:15;10.5;;;1.7;;
6561;SDS011;3314;50.890;4.722;2024-03-17T11:57:03;9.0;;;2.0;;
6561;SDS011;3314;50.890;4.722;2024-03-17T11:59:04;10.3;;;1.8;;
6561;SDS011;3314;50.890;4.722;2024-03-17T12:01:06;10.7;;;1.8;;
6561;SDS011;3314;50.890;4.722;2024-03-17T12:03:09;9.9;;;1.6;;
6561;SDS011;3314;50.890;4.722;2024-03-17T12:05:11;9.9;;;1.8;;
6561;SDS011;3314;50.890;4.722;2024-03-17T12:07:00;11.2;;;1.9;;
6561;SDS011;3314;50.890;4.722;2024-03-17T12:09:10;8.4;;;1.8;;
6561;SDS011;3314;50.890;4.722;2024-03-17T12:11:01;10.0;;;2.0;;
6561;SDS011;3314;50.890;4.722;2024-03-17T12:13:01;12.2;;;2.3;;
6561;SDS011;3314;50.890;4.722;2024-03-17T12:15:01;10.0;;;1.9;;
6561;SDS011;3314;50.890;4.722;2024-03-17T12:17:03;14.2;;;1.9;;
6561;SDS011;3314;50.890;4.722;2024-03-17T12:19:06;11.5;;;1.6;;
6561;SDS011;3314;50.890;4.722;2024-03-17T12:21:06;8.2;;;1.5;;
6561;SDS011;3314;50.890;4.722;2024-03-17T12:23:02;7.0;;;1.8;;
6561;SDS011;3314;50.890;4.722;2024-03-17T12:25:02;8.3;;;2.1;;
6561;SDS011;3314;50.890;4.722;2024-03-17T12:27:05;8.3;;;1.8;;
6561;SDS011;3314;50.890;4.722;2024-03-17T12:29:18;10.6;;;2.4;;
6561;SDS011;3314;50.890;4.722;2024-03-17T12:30:59;10.6;;;1.8;;
6561;SDS011;3314;50.890;4.722;2024-03-17T12:33:00;7.3;;;1.6;;
6561;SDS011;3314;50.890;4.722;2024-03-17T12:35:10;7.8;;;1.8;;
6561;SDS011;3314;50.890;4.722;2024-03-17T12:37:00;9.1;;;2.0;;
6561;SDS011;3314;50.890;4.722;2024-03-17T12:39:11;11.0;;;1.7;;
6561;SDS011;3314;50.890;4.722;2024-03-17T12:40:59;9.1;;;2.3;;
6561;SDS011;3314;50.890;4.722;2024-03-17T12:42:58;7.0;;;1.5;;
6561;SDS011;3314;50.890;4.722;2024-03-17T12:44:59;8.6;;;1.6;;
6561;SDS011;3314;50.890;4.722;2024-03-17T12:47:01;8.7;;;1.5;;
6561;SDS011;3314;50.890;4.722;2024-03-17T12:49:01;7.4;;;1.6;;
6561;SDS011;3314;50.890;4.722;2024-03-17T12:51:01;8.7;;;2.1;;
6561;SDS011;3314;50.890;4.722;2024-03-17T12:53:00;6.9;;;1.5;;